createdAt,value
2019-02-11T00:00:59.320Z,6.76
2019-02-11T00:03:26.742Z,6.78
2019-02-11T00:05:54.210Z,6.81
2019-02-11T00:08:21.619Z,6.83
2019-02-11T00:10:49.015Z,6.80
2019-02-11T00:13:16.636Z,6.76
2019-02-11T00:15:44.055Z,6.77
2019-02-11T00:18:11.563Z,6.69
2019-02-11T00:20:39.098Z,6.66
2019-02-11T00:23:06.487Z,6.67
2019-02-11T00:25:33.913Z,6.70
2019-02-11T00:28:01.319Z,6.75
2019-02-11T00:30:28.751Z,6.77
2019-02-11T00:32:56.228Z,6.73
2019-02-11T00:35:23.569Z,6.60
2019-02-11T00:37:50.987Z,6.33
2019-02-11T00:40:18.416Z,6.32
2019-02-11T00:42:45.804Z,6.06
2019-02-11T00:45:13.223Z,5.78
2019-02-11T00:47:40.628Z,5.61
2019-02-11T00:50:08.020Z,5.56
2019-02-11T00:52:35.425Z,5.35
2019-02-11T00:55:02.936Z,5.29
2019-02-11T00:57:30.449Z,5.34
2019-02-11T00:59:57.830Z,5.45
2019-02-11T01:02:25.299Z,5.55
2019-02-11T01:04:52.715Z,5.51
2019-02-11T01:07:20.099Z,5.35
2019-02-11T01:09:48.039Z,5.11
2019-02-11T01:12:15.449Z,4.95
2019-02-11T01:14:42.957Z,4.88
2019-02-11T01:17:10.342Z,4.87
2019-02-11T01:19:37.751Z,4.50
2019-02-11T01:22:05.236Z,4.60
2019-02-11T01:24:32.648Z,4.69
2019-02-11T01:27:00.065Z,4.70
2019-02-11T01:29:27.447Z,4.70
2019-02-11T01:31:54.840Z,4.83
2019-02-11T01:34:22.519Z,4.95
2019-02-11T01:36:49.913Z,4.99
2019-02-11T01:39:17.324Z,4.87
2019-02-11T01:41:44.708Z,4.87
2019-02-11T01:44:12.135Z,4.86
2019-02-11T01:46:39.698Z,4.71
2019-02-11T01:49:07.081Z,4.72
2019-02-11T01:51:34.502Z,4.71
2019-02-11T01:54:01.898Z,4.75
2019-02-11T01:56:29.342Z,4.84
2019-02-11T01:58:56.731Z,4.88
2019-02-11T02:01:24.131Z,4.90
2019-02-11T02:03:51.547Z,4.82
2019-02-11T02:06:18.941Z,4.82
2019-02-11T02:08:46.347Z,4.83
2019-02-11T02:11:13.917Z,4.73
2019-02-11T02:13:44.827Z,4.68
2019-02-11T02:16:08.765Z,4.74
2019-02-11T02:18:36.149Z,4.71
2019-02-11T02:21:03.888Z,4.63
2019-02-11T02:23:31.279Z,4.36
2019-02-11T02:25:58.710Z,4.34
2019-02-11T02:28:26.131Z,4.34
2019-02-11T02:30:53.520Z,4.27
2019-02-11T02:33:20.922Z,4.31
2019-02-11T02:35:48.346Z,4.27
2019-02-11T02:38:16.089Z,4.15
2019-02-11T02:40:43.492Z,3.99
2019-02-11T02:43:10.899Z,3.96
2019-02-11T02:45:38.368Z,3.93
2019-02-11T02:48:05.789Z,3.95
2019-02-11T02:50:33.201Z,3.90
2019-02-11T02:53:00.613Z,3.76
2019-02-11T02:55:28.210Z,3.71
2019-02-11T02:57:55.658Z,3.70
2019-02-11T03:00:23.041Z,3.78
2019-02-11T03:02:50.436Z,3.90
2019-02-11T03:05:17.837Z,4.04
2019-02-11T03:07:45.232Z,3.97
2019-02-11T03:10:12.749Z,3.93
2019-02-11T03:12:40.154Z,4.08
2019-02-11T03:15:07.639Z,4.33
2019-02-11T03:17:35.076Z,4.62
2019-02-11T03:20:02.479Z,4.73
2019-02-11T03:22:29.875Z,4.76
2019-02-11T03:24:58.085Z,4.81
2019-02-11T03:27:25.480Z,4.85
2019-02-11T03:29:52.927Z,4.87
2019-02-11T03:32:20.326Z,4.89
2019-02-11T03:34:47.720Z,4.92
2019-02-11T03:37:15.105Z,4.95
2019-02-11T03:39:42.538Z,4.97
2019-02-11T03:42:09.915Z,4.94
2019-02-11T03:44:37.345Z,4.98
2019-02-11T03:47:04.822Z,5.01
2019-02-11T03:49:32.225Z,5.08
2019-02-11T03:51:59.722Z,5.12
2019-02-11T03:54:27.103Z,5.09
2019-02-11T03:56:54.509Z,5.05
2019-02-11T03:59:22.091Z,5.04
2019-02-11T04:01:49.475Z,5.08
2019-02-11T04:04:17.381Z,5.02
2019-02-11T04:06:44.772Z,5.12
2019-02-11T04:09:12.329Z,5.18
2019-02-11T04:11:39.719Z,5.21
2019-02-11T04:14:07.131Z,5.27
2019-02-11T04:16:34.546Z,5.28
2019-02-11T04:19:01.952Z,5.25
2019-02-11T04:21:29.415Z,5.30
2019-02-11T04:23:56.793Z,5.34
2019-02-11T04:26:24.191Z,5.41
2019-02-11T04:28:51.783Z,5.37
2019-02-11T04:31:19.169Z,5.43
2019-02-11T04:33:46.575Z,5.48
2019-02-11T04:36:14.078Z,5.55
2019-02-11T04:38:41.524Z,5.41
2019-02-11T04:41:09.706Z,5.41
2019-02-11T04:43:37.124Z,5.42
2019-02-11T04:46:04.537Z,5.43
2019-02-11T04:48:31.932Z,5.52
2019-02-11T04:50:59.410Z,5.47
2019-02-11T04:53:26.851Z,5.40
2019-02-11T04:55:54.483Z,5.43
2019-02-11T04:58:21.886Z,5.39
2019-02-11T05:00:49.268Z,5.49
2019-02-11T05:03:16.695Z,5.57
2019-02-11T05:05:44.874Z,5.36
2019-02-11T05:08:12.253Z,5.00
2019-02-11T05:10:39.641Z,4.89
2019-02-11T05:13:07.047Z,4.92
2019-02-11T05:15:34.440Z,4.98
2019-02-11T05:18:01.962Z,5.15
2019-02-11T05:20:29.417Z,5.33
2019-02-11T05:22:57.307Z,5.45
2019-02-11T05:25:24.704Z,5.40
2019-02-11T05:27:52.397Z,5.29
2019-02-11T05:30:19.833Z,5.22
2019-02-11T05:32:47.320Z,5.38
2019-02-11T05:35:14.723Z,5.48
2019-02-11T05:37:44.061Z,5.53
2019-02-11T05:40:09.583Z,5.46
2019-02-11T05:42:37.023Z,5.31
2019-02-11T05:45:04.401Z,5.09
2019-02-11T05:47:31.847Z,5.03
2019-02-11T05:49:59.269Z,5.04
2019-02-11T05:52:26.815Z,5.07
2019-02-11T05:54:54.208Z,5.05
2019-02-11T05:57:22.175Z,5.00
2019-02-11T05:59:49.594Z,4.96
2019-02-11T06:02:16.991Z,4.97
2019-02-11T06:04:44.378Z,5.06
2019-02-11T06:07:11.813Z,5.11
2019-02-11T06:09:39.274Z,5.11
2019-02-11T06:12:06.662Z,5.18
2019-02-11T06:14:34.060Z,5.25
2019-02-11T06:17:01.466Z,5.37
2019-02-11T06:19:28.899Z,5.49
2019-02-11T06:21:56.292Z,5.57
2019-02-11T06:24:23.693Z,5.67
2019-02-11T06:26:51.088Z,5.69
2019-02-11T06:29:19.105Z,5.70
2019-02-11T06:31:45.907Z,5.76
2019-02-11T06:34:13.318Z,5.80
2019-02-11T06:36:40.790Z,5.92
2019-02-11T06:39:08.195Z,5.96
2019-02-11T06:41:35.727Z,5.96
2019-02-11T06:44:04.129Z,5.90
2019-02-11T06:46:31.531Z,5.88
2019-02-11T06:48:58.923Z,5.88
2019-02-11T06:51:26.323Z,5.87
2019-02-11T06:53:53.770Z,5.85
2019-02-11T06:56:21.330Z,5.72
2019-02-11T06:58:49.604Z,5.55
2019-02-11T07:01:17.019Z,5.50
2019-02-11T07:03:44.994Z,5.47
2019-02-11T07:06:12.440Z,5.44
2019-02-11T07:08:39.821Z,5.39
2019-02-11T07:11:07.231Z,5.22
2019-02-11T07:13:34.643Z,5.09
2019-02-11T07:16:02.032Z,5.08
2019-02-11T07:18:29.437Z,5.09
2019-02-11T07:20:57.046Z,5.13
2019-02-11T07:23:24.434Z,5.13
2019-02-11T07:25:51.834Z,5.20
2019-02-11T07:28:19.231Z,5.24
2019-02-11T07:30:46.611Z,5.32
2019-02-11T07:33:14.016Z,5.36
2019-02-11T07:35:41.418Z,5.39
2019-02-11T07:38:09.804Z,5.24
2019-02-11T07:40:37.218Z,5.19
2019-02-11T07:43:05.112Z,5.02
2019-02-11T07:45:37.482Z,5.01
2019-02-11T07:48:04.943Z,5.01
2019-02-11T07:50:32.503Z,5.02
2019-02-11T07:52:59.930Z,5.19
2019-02-11T07:55:27.527Z,5.29
2019-02-11T07:57:54.981Z,5.18
2019-02-11T08:00:22.643Z,5.12
2019-02-11T08:02:50.059Z,5.06
2019-02-11T08:05:17.440Z,4.91
2019-02-11T08:07:44.844Z,4.96
2019-02-11T08:10:12.240Z,5.08
2019-02-11T08:12:39.650Z,5.22
2019-02-11T08:15:07.753Z,5.27
2019-02-11T08:17:35.349Z,5.33
2019-02-11T08:20:02.811Z,5.22
2019-02-11T08:22:30.252Z,5.18
2019-02-11T08:24:57.734Z,5.22
2019-02-11T08:27:25.181Z,5.43
2019-02-11T08:29:52.564Z,5.45
2019-02-11T08:32:19.963Z,5.59
2019-02-11T08:34:47.384Z,5.56
2019-02-11T08:37:14.788Z,5.53
2019-02-11T08:39:42.200Z,5.50
2019-02-11T08:42:09.606Z,5.53
2019-02-11T08:44:37.041Z,5.63
2019-02-11T08:47:05.025Z,5.53
2019-02-11T08:49:32.500Z,5.36
2019-02-11T08:51:59.907Z,5.34
2019-02-11T08:54:27.422Z,5.31
2019-02-11T08:56:54.805Z,5.28
2019-02-11T08:59:22.663Z,5.21
2019-02-11T09:01:50.762Z,5.28
2019-02-11T09:04:19.157Z,5.47
2019-02-11T09:06:45.550Z,5.57
2019-02-11T09:09:12.964Z,5.41
2019-02-11T09:11:40.363Z,5.36
2019-02-11T09:14:07.819Z,5.41
2019-02-11T09:16:35.291Z,5.60
2019-02-11T09:19:02.716Z,5.78
2019-02-11T09:21:30.164Z,6.15
2019-02-11T09:23:57.557Z,6.56
2019-02-11T09:26:24.962Z,6.99
2019-02-11T09:28:52.544Z,7.26
2019-02-11T09:31:19.939Z,7.22
2019-02-11T09:33:47.333Z,6.97
2019-02-11T09:36:14.737Z,6.91
2019-02-11T09:38:42.126Z,6.82
2019-02-11T09:41:09.538Z,6.78
2019-02-11T09:43:36.967Z,6.74
2019-02-11T09:46:04.404Z,6.65
2019-02-11T09:48:31.983Z,6.57
2019-02-11T09:50:59.379Z,6.59
2019-02-11T09:53:26.773Z,6.35
2019-02-11T09:55:54.167Z,6.32
2019-02-11T09:58:22.234Z,6.61
2019-02-11T10:00:49.629Z,6.89
2019-02-11T10:03:17.023Z,7.11
2019-02-11T10:05:44.550Z,7.16
2019-02-11T10:08:12.144Z,7.15
2019-02-11T10:10:39.572Z,7.08
2019-02-11T10:13:06.944Z,7.06
2019-02-11T10:15:34.359Z,7.09
2019-02-11T10:18:01.754Z,7.05
2019-02-11T10:20:29.147Z,7.03
2019-02-11T10:22:56.536Z,7.11
2019-02-11T10:25:24.190Z,7.13
2019-02-11T10:27:52.602Z,7.26
2019-02-11T10:30:20.367Z,7.36
2019-02-11T10:32:47.767Z,7.05
2019-02-11T10:35:15.168Z,6.72
2019-02-11T10:37:42.550Z,6.47
2019-02-11T10:40:09.948Z,6.78
2019-02-11T10:42:37.483Z,6.92
2019-02-11T10:45:04.910Z,6.69
2019-02-11T10:47:32.325Z,6.64
2019-02-11T10:49:59.724Z,6.67
2019-02-11T10:52:27.255Z,6.69
2019-02-11T10:54:55.660Z,6.48
2019-02-11T10:57:23.049Z,6.34
2019-02-11T10:59:50.508Z,6.48
2019-02-11T11:02:18.524Z,6.43
2019-02-11T11:04:46.013Z,6.51
2019-02-11T11:07:13.405Z,6.48
2019-02-11T11:09:41.807Z,6.47
2019-02-11T11:12:09.331Z,6.43
2019-02-11T11:14:36.705Z,6.47
2019-02-11T11:17:04.121Z,6.56
2019-02-11T11:19:31.511Z,6.68
2019-02-11T11:21:59.117Z,6.48
2019-02-11T11:24:26.515Z,6.29
2019-02-11T11:26:53.971Z,6.38
2019-02-11T11:29:21.358Z,6.27
2019-02-11T11:31:48.755Z,6.14
2019-02-11T11:34:16.979Z,6.07
2019-02-11T11:36:44.413Z,6.08
2019-02-11T11:39:21.754Z,6.13
2019-02-11T11:41:49.264Z,6.28
2019-02-11T11:44:17.303Z,6.26
2019-02-11T11:46:47.137Z,6.31
2019-02-11T11:49:12.236Z,6.46
2019-02-11T11:51:40.673Z,6.52
2019-02-11T11:54:07.045Z,6.90
2019-02-11T11:56:34.522Z,6.46
2019-02-11T11:59:01.994Z,6.19
2019-02-11T12:01:29.451Z,6.42
2019-02-11T12:03:56.870Z,6.44
2019-02-11T12:06:25.723Z,6.66
2019-02-11T12:08:51.719Z,6.75
2019-02-11T12:11:19.586Z,6.47
2019-02-11T12:13:47.179Z,6.07
2019-02-11T12:16:14.599Z,5.92
2019-02-11T12:18:42.797Z,5.91
2019-02-11T12:21:10.197Z,5.98
2019-02-11T12:23:37.599Z,6.09
2019-02-11T12:26:05.045Z,6.23
2019-02-11T12:28:32.902Z,6.65
2019-02-11T12:31:00.717Z,7.15
2019-02-11T12:33:28.115Z,7.51
2019-02-11T12:35:55.533Z,7.71
2019-02-11T12:38:23.138Z,7.53
2019-02-11T12:40:50.644Z,7.55
2019-02-11T12:43:18.061Z,7.52
2019-02-11T12:45:45.510Z,7.60
2019-02-11T12:48:12.919Z,7.88
2019-02-11T12:50:40.371Z,7.79
2019-02-11T12:53:07.803Z,8.11
2019-02-11T12:55:34.746Z,10.04
2019-02-11T12:58:01.724Z,12.40
2019-02-11T13:00:28.687Z,13.75
2019-02-11T13:02:55.628Z,13.07
2019-02-11T13:05:32.270Z,13.63
2019-02-11T13:07:50.188Z,14.18
2019-02-11T13:10:17.639Z,13.60
2019-02-11T13:12:45.163Z,12.11
2019-02-11T13:15:12.542Z,11.24
2019-02-11T13:17:40.019Z,10.58
2019-02-11T13:20:10.582Z,10.07
2019-02-11T13:22:34.925Z,10.21
2019-02-11T13:25:07.200Z,11.35
2019-02-11T13:27:29.782Z,11.68
2019-02-11T13:29:57.285Z,10.38
2019-02-11T13:32:24.699Z,9.33
2019-02-11T13:34:52.223Z,8.64
2019-02-11T13:37:19.695Z,8.32
2019-02-11T13:39:47.095Z,8.14
2019-02-11T13:42:14.492Z,8.19
2019-02-11T13:44:41.942Z,8.19
2019-02-11T13:47:09.334Z,8.20
2019-02-11T13:49:36.764Z,8.89
2019-02-11T13:52:04.187Z,10.77
2019-02-11T13:54:31.592Z,12.35
2019-02-11T13:56:59.034Z,11.20
2019-02-11T13:59:27.143Z,9.88
2019-02-11T14:01:54.544Z,9.40
2019-02-11T14:04:21.999Z,9.69
2019-02-11T14:06:49.410Z,10.04
2019-02-11T14:09:16.824Z,9.63
2019-02-11T14:11:44.241Z,9.36
2019-02-11T14:14:11.684Z,9.39
2019-02-11T14:16:39.118Z,9.31
2019-02-11T14:19:06.504Z,9.01
2019-02-11T14:21:34.777Z,8.36
2019-02-11T14:24:02.162Z,8.39
2019-02-11T14:26:29.562Z,8.53
2019-02-11T14:28:57.054Z,8.52
2019-02-11T14:31:25.093Z,8.35
2019-02-11T14:33:52.517Z,8.33
2019-02-11T14:36:20.086Z,8.25
2019-02-11T14:38:48.060Z,8.18
2019-02-11T14:41:15.499Z,8.18
2019-02-11T14:43:43.085Z,8.24
2019-02-11T14:46:10.513Z,8.26
2019-02-11T14:48:37.985Z,8.30
2019-02-11T14:51:06.205Z,8.53
2019-02-11T14:53:33.597Z,8.58
2019-02-11T14:56:00.987Z,8.68
2019-02-11T14:58:28.411Z,8.80
2019-02-11T15:00:55.840Z,8.65
2019-02-11T15:03:23.324Z,8.66
2019-02-11T15:05:50.754Z,8.63
2019-02-11T15:08:18.150Z,8.58
2019-02-11T15:10:45.594Z,8.69
2019-02-11T15:13:12.994Z,8.67
2019-02-11T15:15:40.471Z,8.62
2019-02-11T15:18:07.863Z,8.65
2019-02-11T15:20:35.309Z,8.74
2019-02-11T15:23:02.745Z,8.78
2019-02-11T15:25:30.315Z,8.84
2019-02-11T15:27:57.709Z,8.77
2019-02-11T15:30:25.133Z,8.70
2019-02-11T15:32:52.551Z,8.61
2019-02-11T15:35:20.069Z,8.56
2019-02-11T15:37:47.494Z,8.31
2019-02-11T15:40:16.737Z,8.21
2019-02-11T15:42:44.143Z,8.19
2019-02-11T15:45:11.579Z,8.34
2019-02-11T15:47:38.992Z,8.29
2019-02-11T15:50:07.135Z,8.33
2019-02-11T15:52:34.566Z,8.41
2019-02-11T15:55:02.128Z,8.50
2019-02-11T15:57:29.542Z,8.58
2019-02-11T15:59:56.930Z,8.54
2019-02-11T16:02:24.716Z,8.54
2019-02-11T16:04:52.235Z,8.43
2019-02-11T16:07:19.651Z,8.31
2019-02-11T16:09:47.332Z,8.16
2019-02-11T16:12:14.815Z,7.84
2019-02-11T16:14:42.275Z,7.66
2019-02-11T16:17:09.690Z,7.67
2019-02-11T16:19:37.153Z,7.71
2019-02-11T16:22:04.591Z,7.61
2019-02-11T16:24:32.003Z,7.41
2019-02-11T16:26:59.395Z,7.25
2019-02-11T16:29:26.802Z,7.27
2019-02-11T16:32:00.542Z,7.25
2019-02-11T16:34:21.638Z,7.21
2019-02-11T16:36:49.061Z,7.17
2019-02-11T16:39:18.302Z,7.07
2019-02-11T16:41:45.721Z,7.04
2019-02-11T16:44:14.195Z,7.06
2019-02-11T16:46:41.577Z,7.11
2019-02-11T16:49:08.971Z,7.06
2019-02-11T16:51:36.433Z,6.97
2019-02-11T16:54:03.716Z,6.96
2019-02-11T16:56:30.466Z,6.97
2019-02-11T16:58:57.427Z,7.00
2019-02-11T17:01:24.368Z,7.08
2019-02-11T17:03:51.294Z,7.10
2019-02-11T17:06:18.292Z,7.04
2019-02-11T17:08:45.223Z,6.97
2019-02-11T17:11:12.321Z,6.87
2019-02-11T17:13:39.247Z,6.81
2019-02-11T17:16:06.178Z,6.79
2019-02-11T17:18:33.154Z,6.80
2019-02-11T17:21:00.728Z,6.80
2019-02-11T17:23:27.674Z,6.83
2019-02-11T17:25:54.607Z,6.85
2019-02-11T17:28:21.660Z,6.88
2019-02-11T17:30:48.638Z,6.88
2019-02-11T17:33:15.661Z,6.79
2019-02-11T17:35:42.611Z,6.76
2019-02-11T17:38:09.589Z,6.75
2019-02-11T17:40:36.570Z,6.71
2019-02-11T17:43:03.547Z,6.73
2019-02-11T17:45:30.473Z,6.74
2019-02-11T17:47:57.436Z,6.77
2019-02-11T17:50:24.378Z,6.84
2019-02-11T17:52:51.744Z,6.92
2019-02-11T17:55:19.234Z,6.93
2019-02-11T17:57:46.191Z,6.88
2019-02-11T18:00:22.248Z,6.77
2019-02-11T18:02:49.548Z,6.77
2019-02-11T18:05:16.648Z,6.75
2019-02-11T18:07:43.677Z,6.73
2019-02-11T18:10:10.663Z,6.71
2019-02-11T18:12:38.058Z,6.64
2019-02-11T18:15:05.563Z,6.53
2019-02-11T18:17:32.562Z,6.54
2019-02-11T18:19:59.964Z,6.58
2019-02-11T18:22:29.078Z,6.60
2019-02-11T18:24:56.636Z,6.51
2019-02-11T18:27:24.151Z,6.41
2019-02-11T18:29:51.539Z,6.36
2019-02-11T18:32:18.938Z,6.25
2019-02-11T18:34:47.568Z,6.13
2019-02-11T18:37:13.443Z,6.15
2019-02-11T18:39:40.388Z,6.23
2019-02-11T18:42:07.438Z,6.19
2019-02-11T18:44:34.432Z,6.10
2019-02-11T18:47:01.358Z,6.06
2019-02-11T18:49:34.390Z,6.04
2019-02-11T18:51:56.220Z,6.01
2019-02-11T18:54:23.811Z,5.98
2019-02-11T18:56:51.261Z,5.96
2019-02-11T18:59:24.503Z,5.92
2019-02-11T19:01:46.109Z,5.95
2019-02-11T19:04:15.542Z,6.01
2019-02-11T19:06:41.115Z,6.06
2019-02-11T19:09:08.547Z,6.00
2019-02-11T19:11:36.051Z,5.92
2019-02-11T19:14:04.281Z,5.94
2019-02-11T19:16:31.666Z,5.99
2019-02-11T19:18:59.306Z,5.96
2019-02-11T19:21:26.723Z,6.01
2019-02-11T19:23:54.468Z,6.08
2019-02-11T19:26:21.863Z,6.21
2019-02-11T19:28:49.324Z,6.28
2019-02-11T19:31:16.702Z,6.33
2019-02-11T19:33:44.165Z,6.32
2019-02-11T19:36:11.579Z,6.32
2019-02-11T19:38:39.110Z,6.35
2019-02-11T19:41:06.507Z,6.38
2019-02-11T19:43:34.041Z,6.31
2019-02-11T19:46:01.443Z,6.27
2019-02-11T19:48:28.892Z,6.12
2019-02-11T19:50:56.309Z,5.86
2019-02-11T19:53:23.768Z,5.72
2019-02-11T19:55:51.169Z,5.61
2019-02-11T19:58:18.679Z,5.58
2019-02-11T20:00:46.060Z,5.66
2019-02-11T20:03:13.555Z,5.67
2019-02-11T20:05:40.988Z,5.63
2019-02-11T20:08:08.377Z,5.61
2019-02-11T20:10:35.779Z,5.66
2019-02-11T20:13:03.274Z,5.75
2019-02-11T20:15:30.766Z,5.68
2019-02-11T20:17:58.157Z,5.68
2019-02-11T20:20:25.684Z,5.74
2019-02-11T20:22:53.091Z,5.77
2019-02-11T20:25:20.548Z,5.82
2019-02-11T20:27:48.017Z,5.97
2019-02-11T20:30:17.479Z,6.02
2019-02-11T20:32:44.871Z,5.99
2019-02-11T20:35:12.280Z,5.92
2019-02-11T20:37:39.672Z,5.92
2019-02-11T20:40:10.436Z,5.96
2019-02-11T20:42:37.858Z,5.96
2019-02-11T20:45:09.214Z,5.98
2019-02-11T20:47:36.666Z,6.04
2019-02-11T20:50:09.323Z,6.11
2019-02-11T20:52:31.589Z,6.16
2019-02-11T20:54:58.991Z,6.15
2019-02-11T20:57:26.402Z,6.12
2019-02-11T20:59:53.800Z,6.08
2019-02-11T21:02:21.194Z,6.09
2019-02-11T21:04:48.590Z,6.08
2019-02-11T21:07:15.990Z,5.86
2019-02-11T21:09:43.538Z,5.82
2019-02-11T21:12:11.010Z,5.90
2019-02-11T21:14:38.417Z,5.86
2019-02-11T21:17:05.819Z,5.89
2019-02-11T21:19:33.268Z,5.86
2019-02-11T21:22:00.750Z,5.83
2019-02-11T21:24:28.145Z,5.86
2019-02-11T21:26:55.557Z,5.89
2019-02-11T21:29:22.953Z,5.88
2019-02-11T21:31:50.381Z,5.93
2019-02-11T21:34:17.790Z,6.00
2019-02-11T21:36:45.307Z,5.81
2019-02-11T21:39:12.729Z,5.83
2019-02-11T21:41:40.122Z,5.86
2019-02-11T21:44:07.746Z,5.83
2019-02-11T21:46:35.342Z,5.83
2019-02-11T21:49:02.761Z,5.85
2019-02-11T21:51:30.359Z,5.62
2019-02-11T21:53:57.858Z,5.55
2019-02-11T21:56:25.474Z,5.53
2019-02-11T21:58:52.858Z,5.58
2019-02-11T22:01:20.256Z,5.33
2019-02-11T22:03:47.850Z,5.29
2019-02-11T22:06:15.353Z,5.32
2019-02-11T22:08:42.762Z,5.28
2019-02-11T22:11:10.226Z,5.28
2019-02-11T22:13:37.708Z,5.16
2019-02-11T22:16:05.116Z,5.05
2019-02-11T22:18:32.657Z,4.90
2019-02-11T22:21:00.030Z,4.80
2019-02-11T22:23:27.835Z,4.77
2019-02-11T22:25:55.242Z,4.72
2019-02-11T22:28:22.632Z,4.71
2019-02-11T22:30:50.071Z,4.73
2019-02-11T22:33:17.453Z,4.80
2019-02-11T22:35:44.850Z,4.84
2019-02-11T22:38:12.238Z,4.91
2019-02-11T22:40:39.627Z,4.98
2019-02-11T22:43:07.049Z,5.01
2019-02-11T22:45:34.739Z,5.01
2019-02-11T22:48:02.234Z,5.02
2019-02-11T22:50:29.629Z,4.98
2019-02-11T22:52:57.030Z,4.95
2019-02-11T22:55:24.422Z,4.92
2019-02-11T22:57:51.827Z,4.86
2019-02-11T23:00:23.740Z,4.83
2019-02-11T23:02:51.144Z,4.80
2019-02-11T23:05:18.615Z,4.80
2019-02-11T23:07:46.011Z,4.86
2019-02-11T23:10:13.422Z,4.94
2019-02-11T23:12:40.953Z,5.01
2019-02-11T23:15:08.329Z,5.06
2019-02-11T23:17:35.769Z,5.09
2019-02-11T23:20:03.172Z,5.12
2019-02-11T23:22:30.562Z,5.02
2019-02-11T23:24:58.035Z,4.76
2019-02-11T23:27:25.419Z,4.79
2019-02-11T23:29:52.950Z,4.81
2019-02-11T23:32:20.407Z,4.66
2019-02-11T23:34:47.806Z,4.48
2019-02-11T23:37:15.191Z,4.40
2019-02-11T23:39:42.721Z,4.31
2019-02-11T23:42:10.095Z,4.22
2019-02-11T23:44:37.498Z,4.27
2019-02-11T23:47:04.947Z,4.12
2019-02-11T23:49:32.351Z,4.00
2019-02-11T23:51:59.748Z,4.01
2019-02-11T23:54:27.318Z,4.11
2019-02-11T23:56:54.719Z,4.12
2019-02-11T23:59:22.233Z,4.18
